createdAt,value
2023-03-11T00:01:21.158Z,98324.38
2023-03-11T00:03:58.124Z,98324.31
2023-03-11T00:06:24.795Z,98331.97
2023-03-11T00:08:52.297Z,98328.75
2023-03-11T00:11:19.720Z,98337.34
2023-03-11T00:13:46.081Z,98345.28
2023-03-11T00:16:12.597Z,98347.28
2023-03-11T00:18:41.817Z,98359.50
2023-03-11T00:21:16.236Z,98361.31
2023-03-11T00:23:42.748Z,98354.72
2023-03-11T00:26:09.213Z,98364.31
2023-03-11T00:28:36.006Z,98373.81
2023-03-11T00:31:03.345Z,98380.16
2023-03-11T00:33:31.604Z,98380.16
2023-03-11T00:35:58.349Z,98384.53
2023-03-11T00:38:24.823Z,98394.22
2023-03-11T00:40:52.150Z,98393.41
2023-03-11T00:43:20.785Z,98395.19
2023-03-11T00:45:47.663Z,98400.44
2023-03-11T00:48:15.093Z,98393.47
2023-03-11T00:50:43.829Z,98398.97
2023-03-11T00:53:10.838Z,98404.06
2023-03-11T00:55:37.201Z,98408.69
2023-03-11T00:58:05.470Z,98404.47
2023-03-11T01:00:32.262Z,98414.00
2023-03-11T01:03:01.710Z,98416.78
2023-03-11T01:05:31.528Z,98423.63
2023-03-11T01:07:59.081Z,98427.97
2023-03-11T01:10:26.032Z,98434.75
2023-03-11T01:12:55.526Z,98434.19
2023-03-11T01:15:29.314Z,98435.91
2023-03-11T01:17:56.790Z,98441.09
2023-03-11T01:20:23.760Z,98440.28
2023-03-11T01:22:51.091Z,98436.81
2023-03-11T01:25:19.979Z,98436.75
2023-03-11T01:27:46.565Z,98434.81
2023-03-11T01:30:21.892Z,98436.53
2023-03-11T01:32:48.730Z,98432.28
2023-03-11T12:31:12.186Z,98992.97
2023-03-11T12:33:51.548Z,98993.13
2023-03-11T12:36:29.312Z,98995.41
2023-03-11T12:38:56.123Z,98997.28
2023-03-11T12:41:42.109Z,98987.53
2023-03-11T12:44:31.295Z,98984.88
2023-03-11T12:46:59.953Z,98978.97
2023-03-11T12:49:35.938Z,98980.09
2023-03-11T12:52:11.721Z,98980.00
2023-03-11T12:54:40.492Z,98983.25
2023-03-11T12:57:16.042Z,98977.94
2023-03-11T13:00:22.779Z,98982.88
2023-03-11T13:03:27.080Z,98987.97
2023-03-11T13:06:20.881Z,98995.94
2023-03-11T13:08:58.252Z,98996.59
2023-03-11T13:11:33.396Z,98994.09
2023-03-11T13:14:16.084Z,98995.78
2023-03-11T13:16:44.587Z,98995.78
2023-03-11T13:19:25.916Z,99005.69
2023-03-11T13:22:00.155Z,99003.50
2023-03-11T13:24:29.192Z,99014.78
2023-03-11T13:26:58.416Z,99015.63
2023-03-11T13:32:49.876Z,99024.97
2023-03-11T13:36:20.505Z,99037.81
2023-03-11T13:39:22.258Z,99038.47
2023-03-11T13:41:48.983Z,99041.97
2023-03-11T13:44:28.550Z,99035.94
2023-03-11T13:47:02.028Z,99047.63
2023-03-11T13:49:45.277Z,99048.16
2023-03-11T13:52:22.109Z,99048.19
2023-03-11T13:54:55.504Z,99048.78
2023-03-11T13:57:33.177Z,99057.25
2023-03-11T14:00:17.776Z,99054.75
2023-03-11T14:02:48.388Z,99059.94
2023-03-11T14:05:19.195Z,99054.00
2023-03-11T14:07:45.669Z,99053.81
2023-03-11T14:10:11.945Z,99050.53
2023-03-11T14:12:39.998Z,99048.81
2023-03-11T14:15:09.372Z,99058.06
2023-03-11T14:17:35.903Z,99059.94
2023-03-11T14:20:11.836Z,99066.72
2023-03-11T14:22:38.400Z,99054.47
2023-03-11T14:25:09.496Z,99054.84
2023-03-11T14:27:38.474Z,99047.72
2023-03-11T14:30:06.693Z,99049.59
2023-03-11T14:32:36.269Z,99048.03
2023-03-11T14:35:19.327Z,99055.75
2023-03-11T14:37:45.675Z,99062.06
2023-03-11T14:40:25.700Z,99052.19
2023-03-11T14:42:55.721Z,99052.19
2023-03-11T14:45:26.273Z,99052.75
2023-03-11T14:48:02.319Z,99050.69
2023-03-11T14:50:31.904Z,99049.97
2023-03-11T14:53:04.605Z,99052.00
2023-03-11T14:55:41.436Z,99052.38
2023-03-11T14:58:23.780Z,99047.00
2023-03-11T15:00:52.605Z,99050.69
2023-03-11T15:03:26.078Z,99058.16
2023-03-11T15:05:56.694Z,99061.66
2023-03-11T15:08:28.284Z,99067.22
2023-03-11T15:11:18.998Z,99059.63
2023-03-11T15:13:53.118Z,99062.97
2023-03-11T15:16:34.642Z,99059.56
2023-03-11T15:19:20.764Z,99052.75
2023-03-11T15:21:48.818Z,99052.88
2023-03-11T15:24:27.916Z,99055.34
2023-03-11T15:27:05.198Z,99049.81
2023-03-11T15:29:33.036Z,99057.66
2023-03-11T15:31:59.993Z,99058.06
2023-03-11T15:34:30.529Z,99051.69
2023-03-11T15:37:00.020Z,99046.63
2023-03-11T15:39:47.591Z,99059.94
2023-03-11T15:42:21.910Z,99068.22
2023-03-11T15:44:53.543Z,99070.66
2023-03-11T15:47:22.250Z,99081.75
2023-03-11T15:49:49.790Z,99082.56
2023-03-11T15:52:19.259Z,99095.28
2023-03-11T15:54:55.045Z,99096.97
2023-03-11T15:57:28.159Z,99103.06
2023-03-11T15:59:57.918Z,99102.84
2023-03-11T16:02:27.075Z,99113.88
2023-03-11T16:04:54.090Z,99113.94
2023-03-11T16:07:36.499Z,99113.81
2023-03-11T16:10:05.523Z,99107.34
2023-03-11T16:12:31.919Z,99106.72
2023-03-11T16:14:58.571Z,99111.22
2023-03-11T16:17:25.048Z,99114.47
2023-03-11T16:19:51.991Z,99119.13
2023-03-11T16:22:27.527Z,99119.81
2023-03-11T16:24:54.336Z,99118.28
2023-03-11T16:27:20.717Z,99117.66
2023-03-11T16:29:47.176Z,99111.06
2023-03-11T16:32:13.763Z,99110.16
2023-03-11T16:34:40.296Z,99114.81
2023-03-11T16:37:08.070Z,99111.31
2023-03-11T16:39:34.896Z,99115.25
2023-03-11T16:42:01.878Z,99108.38
2023-03-11T16:44:28.378Z,99112.06
2023-03-11T16:46:55.120Z,99116.41
2023-03-11T16:49:21.627Z,99109.78
2023-03-11T16:51:48.072Z,99117.00
2023-03-11T16:54:14.966Z,99110.19
2023-03-11T16:56:42.779Z,99121.03
2023-03-11T16:59:09.194Z,99114.28
2023-03-11T17:01:38.460Z,99119.13
2023-03-11T17:04:07.907Z,99125.19
2023-03-11T17:06:34.731Z,99128.75
2023-03-11T17:09:02.503Z,99133.34
2023-03-11T17:11:30.576Z,99133.56
2023-03-11T17:14:10.053Z,99137.19
2023-03-11T17:16:41.805Z,99152.16
2023-03-11T17:19:08.266Z,99152.47
2023-03-11T17:21:35.425Z,99153.63
2023-03-11T17:24:01.800Z,99161.50
2023-03-11T17:26:30.767Z,99159.06
2023-03-11T17:28:57.410Z,99158.13
2023-03-11T17:31:24.022Z,99161.16
2023-03-11T17:33:51.121Z,99157.69
2023-03-11T17:36:18.290Z,99156.91
2023-03-11T17:38:46.714Z,99164.84
2023-03-11T17:41:15.262Z,99167.56
2023-03-11T17:43:42.372Z,99170.41
2023-03-11T17:46:14.268Z,99173.09
2023-03-11T17:48:42.186Z,99179.28
2023-03-11T17:51:11.090Z,99178.50
2023-03-11T17:53:43.853Z,99173.50
2023-03-11T17:56:13.419Z,99180.56
2023-03-11T17:58:40.516Z,99179.72
2023-03-11T18:01:13.375Z,99174.66
2023-03-11T18:03:39.906Z,99179.22
2023-03-11T18:06:06.742Z,99185.53
2023-03-11T18:08:35.369Z,99187.59
2023-03-11T18:11:08.099Z,99193.91
2023-03-11T18:13:35.500Z,99192.09
2023-03-11T18:16:17.252Z,99200.22
2023-03-11T18:18:44.412Z,99204.63
2023-03-11T18:21:21.116Z,99204.63
2023-03-11T18:23:53.532Z,99209.97
2023-03-11T18:26:20.221Z,99215.28
2023-03-11T18:28:46.667Z,99211.22
2023-03-11T18:31:16.928Z,99216.72
2023-03-11T18:33:48.400Z,99217.66
2023-03-11T18:36:37.697Z,99222.94
2023-03-11T18:39:06.191Z,99224.03
2023-03-11T18:41:34.989Z,99217.91
2023-03-11T18:44:01.620Z,99224.97
2023-03-11T18:46:33.569Z,99231.13
2023-03-11T18:49:01.714Z,99233.00
2023-03-11T18:51:30.387Z,99227.78
2023-03-11T18:53:57.321Z,99227.88
2023-03-11T18:56:23.697Z,99229.72
2023-03-11T18:58:50.552Z,99232.47
2023-03-11T19:01:20.445Z,99229.09
2023-03-11T19:03:55.579Z,99234.44
2023-03-11T19:06:22.985Z,99232.81
2023-03-11T19:08:49.759Z,99239.13
2023-03-11T19:11:20.833Z,99235.91
2023-03-11T19:13:48.212Z,99236.81
2023-03-11T19:16:19.402Z,99230.94
2023-03-11T19:18:53.758Z,99231.75
2023-03-11T19:21:20.616Z,99231.84
2023-03-11T19:23:53.046Z,99231.09
2023-03-11T19:26:25.690Z,99234.69
2023-03-11T19:28:57.159Z,99243.38
2023-03-11T19:31:23.568Z,99241.78
2023-03-11T19:33:51.349Z,99245.28
2023-03-11T19:36:18.582Z,99237.50
2023-03-11T19:38:45.137Z,99241.13
2023-03-11T19:41:14.491Z,99235.09
2023-03-11T19:43:42.902Z,99235.16
2023-03-11T19:46:12.391Z,99238.78
2023-03-11T19:48:38.904Z,99239.69
2023-03-11T19:51:08.457Z,99235.44
2023-03-11T19:53:36.386Z,99239.06
2023-03-11T19:56:05.090Z,99248.75
2023-03-11T19:58:31.939Z,99247.94
2023-03-11T20:00:59.372Z,99250.72
2023-03-11T20:03:32.899Z,99262.09
2023-03-11T20:06:05.616Z,99262.16
2023-03-11T20:08:36.585Z,99274.53
2023-03-11T20:11:05.482Z,99273.75
2023-03-11T20:13:33.686Z,99271.19
2023-03-11T20:16:08.080Z,99275.63
2023-03-11T20:18:34.696Z,99283.47
2023-03-11T20:21:05.619Z,99280.91
2023-03-11T20:23:32.784Z,99286.19
2023-03-11T20:25:59.349Z,99272.34
2023-03-11T20:28:27.154Z,99272.41
2023-03-11T20:30:54.297Z,99275.97
2023-03-11T20:33:20.731Z,99271.66
2023-03-11T20:35:47.167Z,99275.19
2023-03-11T20:38:13.840Z,99278.78
2023-03-11T20:40:40.838Z,99283.16
2023-03-11T20:43:08.856Z,99278.00
2023-03-11T20:45:35.475Z,99284.97
2023-03-11T20:48:03.481Z,99283.28
2023-03-11T20:50:31.499Z,99283.31
2023-03-11T20:52:57.967Z,99292.03
2023-03-11T20:55:25.565Z,99289.47
2023-03-11T20:57:54.474Z,99302.63
2023-03-11T21:00:24.210Z,99294.81
2023-03-11T21:02:51.063Z,99296.63
2023-03-11T21:05:20.335Z,99295.78
2023-03-11T21:07:48.218Z,99295.84
2023-03-11T21:10:16.735Z,99297.66
2023-03-11T21:12:43.347Z,99303.81
2023-03-11T21:15:11.179Z,99304.78
2023-03-11T21:17:37.657Z,99303.03
2023-03-11T21:20:06.337Z,99298.69
2023-03-11T21:22:33.481Z,99298.72
2023-03-11T21:24:59.872Z,99294.41
2023-03-11T21:27:26.587Z,99288.31
2023-03-11T21:29:54.322Z,99299.63
2023-03-11T21:32:22.322Z,99302.34
2023-03-11T21:34:49.118Z,99301.50
2023-03-11T21:37:15.699Z,99300.69
2023-03-11T21:39:42.162Z,99304.19
2023-03-11T21:42:08.704Z,99303.38
2023-03-11T21:44:35.211Z,99316.44
2023-03-11T21:47:01.797Z,99312.06
2023-03-11T21:49:28.329Z,99300.81
2023-03-11T21:51:56.325Z,99306.91
2023-03-11T21:54:22.816Z,99307.81
2023-03-11T21:56:49.286Z,99307.84
2023-03-11T21:59:16.075Z,99311.28
2023-03-11T22:01:42.657Z,99318.25
2023-03-11T22:04:09.517Z,99321.78
2023-03-11T22:06:35.915Z,99309.59
2023-03-11T22:09:03.279Z,99304.47
2023-03-11T22:11:29.904Z,99308.84
2023-03-11T22:13:57.279Z,99309.72
2023-03-11T22:16:24.997Z,99322.78
2023-03-11T22:18:51.747Z,99317.56
2023-03-11T22:21:20.506Z,99314.09
2023-03-11T22:23:47.926Z,99321.03
2023-03-11T22:26:15.761Z,99318.47
2023-03-11T22:28:45.624Z,99315.00
2023-03-11T22:31:14.675Z,99318.50
2023-03-11T22:33:41.475Z,99324.53
2023-03-11T22:36:09.188Z,99328.91
2023-03-11T22:38:41.908Z,99330.69
2023-03-11T22:41:08.472Z,99326.28
2023-03-11T22:43:35.500Z,99323.72
2023-03-11T22:46:02.649Z,99330.66
2023-03-11T22:48:29.142Z,99328.13
2023-03-11T22:50:56.156Z,99339.44
2023-03-11T22:53:24.772Z,99335.97
2023-03-11T22:55:53.172Z,99329.91
2023-03-11T22:58:20.753Z,99336.00
2023-03-11T23:00:47.420Z,99331.72
2023-03-11T23:03:15.148Z,99331.75
2023-03-11T23:05:42.445Z,99326.53
2023-03-11T23:08:16.807Z,99328.34
2023-03-11T23:10:45.418Z,99328.38
2023-03-11T23:13:12.505Z,99328.34
2023-03-11T23:15:44.626Z,99324.06
2023-03-11T23:18:11.488Z,99330.97
2023-03-11T23:20:42.714Z,99334.47
2023-03-11T23:23:09.936Z,99334.47
2023-03-11T23:25:36.473Z,99331.88
2023-03-11T23:28:04.367Z,99339.69
2023-03-11T23:30:31.629Z,99338.00
2023-03-11T23:32:59.091Z,99340.63
2023-03-11T23:35:26.350Z,99345.81
2023-03-11T23:37:52.840Z,99342.34
2023-03-11T23:40:19.243Z,99342.34
2023-03-11T23:42:45.638Z,99346.69
2023-03-11T23:45:12.176Z,99344.13
2023-03-11T23:47:38.506Z,99348.50
2023-03-11T23:50:05.686Z,99347.69
2023-03-11T23:52:35.002Z,99345.09
2023-03-11T23:55:01.528Z,99339.03
2023-03-11T23:57:28.148Z,99339.09
2023-03-11T23:59:56.865Z,99346.88
